Time;durP1;ratioP1;P1;durP2;ratioP2;P2;SDS_P1;SDS_P2;PMS_P1;PMS_P2;Temp;Humidity;BMP_temperature;BMP_pressure;BME280_temperature;BME280_humidity;BME280_pressure;Samples;Min_cycle;Max_cycle;Signal;HPM_P1;HPM_P2
2022/03/27 00:01:56;;;;;;;12.45;4.68;;;8.60;99.90;;;;;;5008340;28;20038;-87
2022/03/27 00:04:21;;;;;;;9.55;4.75;;;8.60;99.90;;;;;;5010218;28;20034;-86
2022/03/27 00:06:47;;;;;;;11.25;5.03;;;8.50;99.90;;;;;;5011522;28;20041;-87
2022/03/27 00:09:15;;;;;;;10.77;5.07;;;8.60;99.90;;;;;;5011689;28;20029;-87
2022/03/27 00:11:43;;;;;;;10.93;5.35;;;8.50;99.90;;;;;;5023472;28;20029;-86
2022/03/27 00:14:08;;;;;;;9.02;5.13;;;8.50;99.90;;;;;;5026870;28;20034;-86
2022/03/27 00:16:35;;;;;;;8.48;4.63;;;8.40;99.90;;;;;;5015226;28;20475;-87
2022/03/27 00:19:02;;;;;;;12.07;5.22;;;8.40;99.90;;;;;;5016076;28;20030;-87
2022/03/27 00:21:28;;;;;;;10.40;5.80;;;8.30;99.90;;;;;;5014105;28;20033;-87
2022/03/27 00:23:54;;;;;;;9.82;5.47;;;8.30;99.90;;;;;;5002723;28;20040;-87
2022/03/27 00:26:20;;;;;;;11.63;5.53;;;8.30;99.90;;;;;;5014538;28;20489;-86
2022/03/27 00:28:50;;;;;;;10.80;5.15;;;8.30;99.90;;;;;;5015069;28;20050;-87
2022/03/27 00:31:17;;;;;;;9.77;5.78;;;8.20;99.90;;;;;;5001878;28;20033;-87
2022/03/27 00:33:46;;;;;;;12.20;5.72;;;8.20;99.90;;;;;;5014263;28;20113;-87
2022/03/27 00:36:16;;;;;;;9.52;6.93;;;8.20;99.90;;;;;;5014890;28;20034;-87
2022/03/27 00:38:43;;;;;;;9.80;6.53;;;8.20;99.90;;;;;;5031038;28;20022;-86
2022/03/27 00:41:10;;;;;;;12.05;7.18;;;8.10;99.90;;;;;;5012785;28;20022;-86
2022/03/27 00:43:43;;;;;;;11.68;7.20;;;8.00;99.90;;;;;;5005643;28;20195;-86
2022/03/27 00:46:09;;;;;;;12.45;7.13;;;8.00;99.90;;;;;;5014742;28;20096;-86
2022/03/27 00:48:34;;;;;;;10.60;7.45;;;8.00;99.90;;;;;;5010036;28;20418;-86
2022/03/27 00:51:00;;;;;;;11.23;7.30;;;8.00;99.90;;;;;;5004312;28;20030;-86
2022/03/27 00:53:31;;;;;;;13.15;6.95;;;8.00;99.90;;;;;;5014209;28;20048;-86
2022/03/27 00:56:00;;;;;;;12.43;8.77;;;7.90;99.90;;;;;;5013771;28;20061;-86
2022/03/27 00:58:29;;;;;;;13.45;8.23;;;8.00;99.90;;;;;;5014134;28;20033;-86
2022/03/27 01:01:16;;;;;;;12.75;8.15;;;8.00;99.90;;;;;;5001885;28;20455;-86
2022/03/27 01:03:41;;;;;;;16.05;8.73;;;8.00;99.90;;;;;;5011243;28;20033;-86
2022/03/27 01:06:23;;;;;;;12.75;8.93;;;8.10;99.90;;;;;;5013842;28;20121;-87
2022/03/27 01:11:32;;;;;;;13.00;8.43;;;8.20;99.90;;;;;;5015765;28;20080;-86
2022/03/27 01:14:01;;;;;;;13.20;9.30;;;8.20;99.90;;;;;;5013379;28;20030;-87
2022/03/27 01:16:39;;;;;;;13.50;9.27;;;8.30;99.90;;;;;;5014058;28;20026;-86
2022/03/27 01:19:09;;;;;;;13.38;9.43;;;8.30;99.90;;;;;;5012495;28;20084;-86
2022/03/27 01:21:37;;;;;;;16.10;9.52;;;8.40;99.90;;;;;;5013052;28;20084;-86
2022/03/27 01:24:03;;;;;;;13.52;9.63;;;8.40;99.90;;;;;;5012475;28;20517;-86
2022/03/27 01:26:34;;;;;;;13.60;10.38;;;8.50;99.90;;;;;;5012753;28;20124;-86
2022/03/27 01:29:02;;;;;;;13.40;9.65;;;8.50;99.90;;;;;;5012503;28;20022;-86
2022/03/27 01:31:38;;;;;;;15.27;9.95;;;8.50;99.90;;;;;;5013475;28;20045;-86
2022/03/27 01:34:05;;;;;;;17.23;10.07;;;8.50;99.90;;;;;;5013777;28;20029;-86
2022/03/27 01:36:37;;;;;;;14.05;9.52;;;8.50;99.90;;;;;;5010095;28;20026;-86
2022/03/27 01:39:07;;;;;;;14.27;9.65;;;8.50;99.90;;;;;;5008587;28;20034;-87
2022/03/27 01:41:33;;;;;;;16.27;10.10;;;8.60;99.90;;;;;;5013150;28;20490;-87
2022/03/27 01:44:03;;;;;;;14.25;9.50;;;8.60;99.90;;;;;;5012605;28;20049;-87
2022/03/27 01:46:34;;;;;;;12.85;9.30;;;8.50;99.90;;;;;;5003496;28;20030;-86
2022/03/27 01:49:09;;;;;;;14.75;9.55;;;8.60;99.90;;;;;;4998375;28;20168;-87
2022/03/27 01:51:39;;;;;;;13.73;10.38;;;8.50;99.90;;;;;;5010615;28;20030;-86
2022/03/27 01:54:06;;;;;;;14.48;9.30;;;8.50;99.90;;;;;;5009406;28;20048;-87
2022/03/27 01:56:32;;;;;;;17.13;11.18;;;8.60;99.90;;;;;;5011652;28;20036;-87
2022/03/27 01:58:59;;;;;;;18.10;12.02;;;8.60;99.90;;;;;;5011789;28;20371;-86
2022/03/27 02:01:24;;;;;;;16.40;11.80;;;8.50;99.90;;;;;;5013352;28;20022;-86
2022/03/27 02:03:54;;;;;;;16.92;11.30;;;8.50;99.90;;;;;;5012095;28;20076;-86
2022/03/27 02:06:19;;;;;;;16.92;11.00;;;8.50;99.90;;;;;;5012834;28;20050;-87
2022/03/27 02:08:45;;;;;;;18.35;12.75;;;8.50;99.90;;;;;;5012313;28;20057;-85
2022/03/27 02:11:14;;;;;;;19.50;12.82;;;8.50;99.90;;;;;;5014451;28;20026;-86
2022/03/27 02:13:41;;;;;;;17.77;12.20;;;8.50;99.90;;;;;;5012552;28;20102;-86
2022/03/27 02:16:10;;;;;;;17.08;12.65;;;8.50;99.90;;;;;;5018444;28;20025;-86
2022/03/27 02:18:41;;;;;;;18.17;12.98;;;8.50;99.90;;;;;;5006933;28;20018;-86
2022/03/27 02:21:09;;;;;;;17.25;12.63;;;8.50;99.90;;;;;;5013148;28;20026;-87
2022/03/27 02:23:35;;;;;;;17.80;12.48;;;8.50;99.90;;;;;;5012521;28;20030;-86
2022/03/27 02:26:10;;;;;;;18.88;12.77;;;8.50;99.90;;;;;;5009843;28;20387;-86
2022/03/27 02:28:35;;;;;;;19.00;12.98;;;8.50;99.90;;;;;;5012534;28;20026;-85
2022/03/27 02:31:03;;;;;;;17.38;13.10;;;8.50;99.90;;;;;;5008086;28;20169;-86
2022/03/27 02:33:32;;;;;;;19.42;13.07;;;8.50;99.90;;;;;;5002606;28;20025;-87
2022/03/27 02:35:57;;;;;;;21.27;13.73;;;8.50;99.90;;;;;;5011544;28;20112;-86
2022/03/27 02:38:26;;;;;;;17.88;13.73;;;8.50;99.90;;;;;;5014459;28;20109;-87
2022/03/27 02:40:51;;;;;;;18.20;13.75;;;8.50;99.90;;;;;;5006139;28;20037;-86
2022/03/27 02:43:17;;;;;;;19.58;13.55;;;8.50;99.90;;;;;;5012477;28;20080;-86
2022/03/27 02:45:43;;;;;;;24.27;16.05;;;8.50;99.90;;;;;;5011447;28;20057;-86
2022/03/27 02:48:08;;;;;;;21.15;15.60;;;8.50;99.90;;;;;;5013754;28;20076;-86
2022/03/27 02:50:39;;;;;;;24.83;16.98;;;8.50;99.90;;;;;;5014188;28;20073;-87
2022/03/27 02:53:05;;;;;;;21.90;15.85;;;8.50;99.90;;;;;;5013449;28;20014;-87
2022/03/27 02:55:33;;;;;;;22.80;16.58;;;8.50;99.90;;;;;;5012306;28;20120;-86
2022/03/27 02:57:59;;;;;;;21.85;15.68;;;8.50;99.90;;;;;;5012741;28;20052;-86
2022/03/27 03:00:27;;;;;;;27.10;17.27;;;8.50;99.90;;;;;;5010067;28;20502;-86
2022/03/27 03:02:56;;;;;;;25.83;16.35;;;8.50;99.90;;;;;;5011358;28;20058;-86
2022/03/27 03:05:22;;;;;;;23.42;16.17;;;8.50;99.90;;;;;;5003402;28;20043;-86
2022/03/27 03:07:48;;;;;;;21.67;15.18;;;8.60;99.90;;;;;;5011788;28;20029;-86
2022/03/27 03:10:15;;;;;;;20.48;14.75;;;8.60;99.90;;;;;;5017271;28;20048;-86
2022/03/27 03:12:41;;;;;;;19.45;14.50;;;8.60;99.90;;;;;;5011757;28;20037;-86
2022/03/27 03:15:08;;;;;;;21.20;15.35;;;8.60;99.90;;;;;;5012081;28;20018;-86
2022/03/27 03:17:34;;;;;;;23.13;15.15;;;8.60;99.90;;;;;;5012269;28;20041;-87
2022/03/27 03:20:00;;;;;;;20.80;14.65;;;8.60;99.90;;;;;;5011967;28;20033;-87
2022/03/27 03:22:27;;;;;;;20.92;14.80;;;8.50;99.90;;;;;;5012441;28;20054;-87
2022/03/27 03:24:52;;;;;;;20.80;15.05;;;8.60;99.90;;;;;;5011019;28;20132;-87
2022/03/27 03:27:25;;;;;;;21.13;14.65;;;8.50;99.90;;;;;;5008791;28;20069;-87
2022/03/27 03:29:51;;;;;;;23.95;16.58;;;8.50;99.90;;;;;;5028631;28;20029;-88
2022/03/27 03:32:16;;;;;;;22.42;15.57;;;8.50;99.90;;;;;;5009199;28;20030;-87
2022/03/27 03:34:44;;;;;;;22.67;14.07;;;8.50;99.90;;;;;;5005382;28;20037;-86
2022/03/27 03:37:13;;;;;;;23.75;15.50;;;8.50;99.90;;;;;;5011531;28;20017;-87
2022/03/27 03:39:39;;;;;;;20.88;14.18;;;8.50;99.90;;;;;;5011633;28;20025;-87
2022/03/27 03:42:06;;;;;;;21.63;15.38;;;8.40;99.90;;;;;;5006377;28;20025;-86
2022/03/27 03:44:32;;;;;;;26.83;17.10;;;8.40;99.90;;;;;;5013462;28;20050;-87
2022/03/27 03:46:57;;;;;;;20.13;13.90;;;8.50;99.90;;;;;;5003439;28;20661;-87
2022/03/27 03:49:25;;;;;;;21.00;13.23;;;8.50;99.90;;;;;;5015636;28;20021;-87
2022/03/27 03:51:53;;;;;;;20.90;14.43;;;8.40;99.90;;;;;;5015791;28;20068;-87
2022/03/27 03:54:18;;;;;;;22.83;14.52;;;8.40;99.90;;;;;;5014977;28;20105;-87
2022/03/27 03:56:44;;;;;;;23.95;14.20;;;8.30;99.90;;;;;;5014449;28;20172;-87
2022/03/27 03:59:12;;;;;;;19.95;13.70;;;8.30;99.90;;;;;;5015404;28;20028;-86
2022/03/27 04:01:42;;;;;;;19.58;14.25;;;8.20;99.90;;;;;;5020823;28;20029;-87
2022/03/27 04:04:13;;;;;;;21.02;13.63;;;8.20;99.90;;;;;;5012974;28;20037;-87
2022/03/27 04:06:39;;;;;;;19.73;13.20;;;8.20;99.90;;;;;;5008899;28;20041;-87
2022/03/27 04:09:04;;;;;;;19.83;13.65;;;8.20;99.90;;;;;;5014416;28;20072;-87
2022/03/27 04:11:30;;;;;;;20.88;13.57;;;8.20;99.90;;;;;;5011560;28;20455;-87
2022/03/27 04:13:55;;;;;;;22.60;14.13;;;8.20;99.90;;;;;;5011725;28;20022;-86
2022/03/27 04:16:21;;;;;;;24.58;15.00;;;8.10;99.90;;;;;;4998684;28;20121;-87
2022/03/27 04:18:47;;;;;;;23.85;13.77;;;8.10;99.90;;;;;;4996505;28;20671;-88
2022/03/27 04:21:12;;;;;;;24.65;14.75;;;8.10;99.90;;;;;;5015048;28;20084;-87
2022/03/27 04:23:38;;;;;;;22.50;13.63;;;8.10;99.90;;;;;;5014174;28;20021;-87
2022/03/27 04:26:04;;;;;;;21.25;13.63;;;8.10;99.90;;;;;;5013984;28;20484;-87
2022/03/27 04:28:32;;;;;;;20.17;12.82;;;8.10;99.90;;;;;;5015215;28;20116;-87
2022/03/27 04:31:00;;;;;;;20.83;11.85;;;8.10;99.90;;;;;;5014627;28;20030;-87
2022/03/27 04:33:25;;;;;;;24.70;13.38;;;8.10;99.90;;;;;;5014812;28;20018;-87
2022/03/27 04:35:54;;;;;;;20.17;12.18;;;8.00;99.90;;;;;;5028715;28;20479;-87
2022/03/27 04:38:20;;;;;;;18.92;10.45;;;8.00;99.90;;;;;;5015268;28;20026;-87
2022/03/27 04:40:50;;;;;;;22.30;12.15;;;8.00;99.90;;;;;;5010804;28;20394;-87
2022/03/27 04:43:15;;;;;;;22.02;11.93;;;7.90;99.90;;;;;;5014551;28;20394;-87
2022/03/27 04:45:41;;;;;;;26.15;12.65;;;7.80;99.90;;;;;;5010013;28;20057;-87
2022/03/27 04:48:06;;;;;;;25.92;13.00;;;7.80;99.90;;;;;;5014413;28;20022;-87
2022/03/27 04:50:32;;;;;;;25.60;12.60;;;7.70;99.90;;;;;;5011713;28;20525;-87
2022/03/27 04:52:58;;;;;;;25.40;13.85;;;7.70;99.90;;;;;;5014815;28;20026;-87
2022/03/27 04:55:26;;;;;;;29.52;12.85;;;7.70;99.90;;;;;;5008654;28;20026;-87
2022/03/27 04:57:51;;;;;;;25.13;13.48;;;7.70;99.90;;;;;;5018896;28;20030;-87
2022/03/27 05:00:17;;;;;;;27.55;12.90;;;7.70;99.90;;;;;;5011253;28;20072;-87
2022/03/27 05:02:45;;;;;;;26.77;13.25;;;7.70;99.90;;;;;;4998392;28;20049;-87
2022/03/27 05:05:17;;;;;;;28.77;14.57;;;7.70;99.90;;;;;;5014469;28;20045;-87
2022/03/27 05:07:47;;;;;;;26.08;12.18;;;7.70;99.90;;;;;;5010826;28;20031;-87
2022/03/27 05:10:14;;;;;;;30.67;14.13;;;7.70;99.90;;;;;;5014638;28;20030;-87
2022/03/27 05:12:39;;;;;;;29.38;14.65;;;7.70;99.90;;;;;;5009442;28;20038;-87
2022/03/27 05:15:06;;;;;;;30.05;14.15;;;7.70;99.90;;;;;;5009983;28;20026;-87
2022/03/27 05:17:32;;;;;;;33.75;14.95;;;7.60;99.90;;;;;;5011593;28;20029;-87
2022/03/27 05:19:57;;;;;;;33.08;14.50;;;7.60;99.90;;;;;;5029635;28;20394;-87
2022/03/27 05:22:23;;;;;;;30.63;14.75;;;7.60;99.90;;;;;;5008204;28;20032;-87
2022/03/27 05:24:49;;;;;;;35.40;15.00;;;7.60;99.90;;;;;;5011423;28;20041;-87
2022/03/27 05:27:18;;;;;;;32.22;14.30;;;7.60;99.90;;;;;;5006993;28;20034;-87
2022/03/27 05:29:44;;;;;;;34.80;15.35;;;7.60;99.90;;;;;;5016448;28;20033;-87
2022/03/27 05:32:10;;;;;;;34.00;14.80;;;7.60;99.90;;;;;;5012951;28;20022;-87
2022/03/27 05:34:36;;;;;;;33.03;14.35;;;7.60;99.90;;;;;;5013791;28;20026;-87
2022/03/27 05:37:03;;;;;;;37.47;15.27;;;7.60;99.90;;;;;;5013538;28;20029;-87
2022/03/27 05:39:34;;;;;;;35.70;16.20;;;7.60;99.90;;;;;;5011161;28;20475;-87
2022/03/27 05:42:02;;;;;;;41.78;15.57;;;7.60;99.90;;;;;;5020834;28;20023;-87
2022/03/27 05:44:27;;;;;;;36.80;15.68;;;7.60;99.90;;;;;;5007665;28;20042;-88
2022/03/27 05:46:53;;;;;;;37.30;15.25;;;7.60;99.90;;;;;;5013438;28;20072;-87
2022/03/27 05:49:21;;;;;;;37.17;15.57;;;7.60;99.90;;;;;;5012525;28;20026;-88
2022/03/27 05:51:50;;;;;;;36.60;16.60;;;7.60;99.90;;;;;;5012249;28;20033;-87
2022/03/27 05:54:21;;;;;;;33.53;14.90;;;7.60;99.90;;;;;;5012216;28;20030;-87
2022/03/27 05:56:46;;;;;;;31.77;14.02;;;7.60;99.90;;;;;;5009577;28;20034;-86
2022/03/27 05:59:14;;;;;;;28.45;13.25;;;7.50;99.90;;;;;;5013261;28;20033;-88
2022/03/27 06:01:40;;;;;;;31.02;14.73;;;7.40;99.90;;;;;;5013208;28;20021;-87
2022/03/27 06:04:06;;;;;;;25.63;11.85;;;7.30;99.90;;;;;;5006448;28;20508;-88
2022/03/27 06:06:31;;;;;;;30.77;13.65;;;7.30;99.90;;;;;;5010277;28;20038;-88
2022/03/27 06:09:00;;;;;;;26.48;12.75;;;7.30;99.90;;;;;;5011613;28;20026;-87
2022/03/27 06:11:28;;;;;;;24.55;12.40;;;7.20;99.90;;;;;;5010486;28;20022;-87
2022/03/27 06:13:53;;;;;;;27.67;14.23;;;7.20;99.90;;;;;;5019112;28;20478;-86
2022/03/27 06:16:19;;;;;;;28.48;14.35;;;7.20;99.90;;;;;;5011424;28;20040;-86
2022/03/27 06:18:44;;;;;;;29.25;13.18;;;7.10;99.90;;;;;;5010853;28;20057;-88
2022/03/27 06:21:10;;;;;;;26.60;12.80;;;7.10;99.90;;;;;;5012876;28;20026;-88
2022/03/27 06:23:40;;;;;;;28.55;13.52;;;7.10;99.90;;;;;;5012970;28;20492;-87
2022/03/27 06:26:08;;;;;;;28.10;13.15;;;7.10;99.90;;;;;;5004665;28;20046;-88
2022/03/27 06:28:33;;;;;;;28.67;14.25;;;7.20;99.90;;;;;;5011109;28;20042;-87
2022/03/27 06:31:04;;;;;;;29.05;13.68;;;7.20;99.90;;;;;;5007932;28;20026;-87
2022/03/27 06:33:31;;;;;;;24.58;12.38;;;7.20;99.90;;;;;;5012271;28;20026;-87
2022/03/27 06:35:58;;;;;;;26.23;12.95;;;7.20;99.90;;;;;;5012879;28;20081;-88
2022/03/27 06:38:27;;;;;;;25.17;12.18;;;7.20;99.90;;;;;;5012877;28;20034;-87
2022/03/27 06:40:58;;;;;;;27.05;12.68;;;7.20;99.90;;;;;;5008848;28;20042;-88
2022/03/27 06:43:26;;;;;;;26.95;14.07;;;7.20;99.90;;;;;;5014965;28;20022;-87
2022/03/27 06:45:53;;;;;;;28.38;13.80;;;7.20;99.90;;;;;;5011490;28;20104;-87
2022/03/27 06:48:21;;;;;;;24.00;12.88;;;7.20;99.90;;;;;;5012304;28;20477;-86
2022/03/27 06:50:50;;;;;;;29.23;13.88;;;7.30;99.90;;;;;;5012341;28;20463;-87
2022/03/27 06:53:20;;;;;;;27.20;12.60;;;7.30;99.90;;;;;;5001606;28;20105;-86
2022/03/27 06:55:48;;;;;;;24.70;13.23;;;7.30;99.90;;;;;;5026089;28;20034;-86
2022/03/27 06:58:14;;;;;;;22.25;11.45;;;7.50;99.90;;;;;;4991112;28;20105;-87
2022/03/27 07:03:24;;;;;;;26.27;12.52;;;7.80;99.90;;;;;;5018984;28;20116;-84
2022/03/27 07:05:50;;;;;;;18.17;10.27;;;8.00;99.90;;;;;;5009420;28;20037;-86
2022/03/27 07:08:17;;;;;;;21.70;11.32;;;8.10;99.90;;;;;;5012473;28;20032;-86
2022/03/27 07:10:47;;;;;;;20.30;11.85;;;8.20;99.90;;;;;;5007653;28;20112;-86
2022/03/27 07:13:15;;;;;;;21.33;12.13;;;8.20;99.90;;;;;;5011179;28;20026;-86
2022/03/27 07:15:44;;;;;;;20.67;11.95;;;8.30;99.90;;;;;;5012290;28;20030;-87
2022/03/27 07:18:11;;;;;;;22.05;11.80;;;8.30;99.90;;;;;;5011310;28;20025;-87
2022/03/27 07:20:40;;;;;;;22.23;12.32;;;8.10;99.90;;;;;;5011798;28;20026;-86
2022/03/27 07:23:10;;;;;;;16.88;10.27;;;8.00;99.90;;;;;;5010989;28;20018;-86
2022/03/27 07:25:40;;;;;;;23.42;13.45;;;8.00;99.90;;;;;;5023136;28;20042;-87
2022/03/27 07:28:08;;;;;;;20.93;11.30;;;8.00;99.90;;;;;;5006136;28;20057;-86
2022/03/27 07:30:37;;;;;;;19.67;11.55;;;8.00;99.90;;;;;;5011950;28;20038;-86
2022/03/27 07:33:03;;;;;;;23.58;13.27;;;8.00;99.90;;;;;;5016679;28;20033;-87
2022/03/27 07:35:32;;;;;;;21.58;12.55;;;8.10;99.90;;;;;;5013504;28;20030;-86
2022/03/27 07:37:59;;;;;;;20.63;12.27;;;8.10;99.90;;;;;;5012833;28;20037;-86
2022/03/27 07:40:28;;;;;;;25.05;12.77;;;8.20;99.90;;;;;;5030227;28;20076;-87
2022/03/27 07:42:57;;;;;;;21.48;12.05;;;8.20;99.90;;;;;;5014852;28;20089;-87
2022/03/27 07:45:27;;;;;;;22.95;12.45;;;8.40;99.90;;;;;;5021159;28;20582;-86
2022/03/27 07:47:53;;;;;;;18.88;10.52;;;8.40;99.90;;;;;;5015987;28;20529;-86
2022/03/27 07:50:25;;;;;;;19.13;12.00;;;8.50;99.90;;;;;;5015908;28;20120;-86
2022/03/27 07:52:51;;;;;;;21.35;11.43;;;8.50;99.90;;;;;;5013595;28;20056;-86
2022/03/27 07:55:22;;;;;;;18.50;11.13;;;8.60;99.90;;;;;;5030989;28;20044;-85
2022/03/27 07:57:50;;;;;;;22.15;12.60;;;8.70;99.90;;;;;;5012483;28;20030;-86
2022/03/27 08:00:16;;;;;;;17.48;10.63;;;8.70;99.90;;;;;;5014245;28;20538;-86
2022/03/27 08:02:45;;;;;;;21.08;12.95;;;8.80;99.90;;;;;;5025162;28;20025;-85
2022/03/27 08:05:13;;;;;;;22.05;12.27;;;8.70;99.90;;;;;;5012142;28;20030;-86
2022/03/27 08:07:38;;;;;;;21.52;11.93;;;8.80;99.90;;;;;;5001211;28;20026;-86
2022/03/27 08:10:05;;;;;;;21.48;12.55;;;8.80;99.90;;;;;;5012797;28;20041;-85
2022/03/27 08:12:31;;;;;;;18.17;10.88;;;8.90;99.90;;;;;;5010702;28;20453;-86
2022/03/27 08:14:56;;;;;;;22.23;12.50;;;9.00;99.90;;;;;;5010014;28;20034;-86
2022/03/27 08:17:22;;;;;;;20.85;11.55;;;9.10;99.90;;;;;;5014912;28;20022;-87
2022/03/27 08:19:51;;;;;;;19.05;11.60;;;9.20;99.90;;;;;;5011716;28;20022;-87
2022/03/27 08:22:19;;;;;;;20.73;12.00;;;9.10;99.90;;;;;;5019193;28;20045;-87
2022/03/27 08:24:45;;;;;;;20.15;12.35;;;9.10;99.90;;;;;;5009971;28;20058;-86
2022/03/27 08:27:11;;;;;;;19.58;12.02;;;9.10;99.90;;;;;;5011279;28;20037;-86
2022/03/27 08:29:41;;;;;;;22.65;13.05;;;9.10;99.90;;;;;;5011673;28;20030;-87
2022/03/27 08:32:10;;;;;;;23.70;14.00;;;9.10;99.90;;;;;;5006395;28;20033;-85
2022/03/27 08:34:38;;;;;;;22.73;12.85;;;9.10;99.90;;;;;;5005013;28;20057;-87
2022/03/27 08:37:08;;;;;;;22.98;12.95;;;9.20;99.90;;;;;;5007420;28;20030;-86
2022/03/27 08:39:34;;;;;;;20.83;12.63;;;9.30;99.90;;;;;;5021689;28;20030;-87
2022/03/27 08:42:00;;;;;;;24.88;13.85;;;9.40;99.90;;;;;;5008095;28;20030;-85
2022/03/27 08:44:29;;;;;;;26.08;14.82;;;9.50;99.90;;;;;;5012020;28;22088;-86
2022/03/27 08:46:58;;;;;;;27.50;14.60;;;9.40;99.90;;;;;;5026702;28;20033;-86
2022/03/27 08:49:28;;;;;;;30.63;16.10;;;9.40;99.90;;;;;;5013634;28;20032;-86
2022/03/27 08:52:17;;;;;;;26.38;14.65;;;9.40;99.90;;;;;;5011369;28;20026;-87
2022/03/27 08:54:49;;;;;;;24.40;13.18;;;9.40;99.90;;;;;;5008925;28;20026;-87
2022/03/27 08:57:55;;;;;;;28.50;14.82;;;9.50;99.90;;;;;;5031044;28;20065;-87
2022/03/27 09:00:23;;;;;;;28.00;14.48;;;9.50;99.90;;;;;;5026802;28;20112;-87
2022/03/27 09:02:52;;;;;;;26.70;14.27;;;9.50;99.90;;;;;;5009194;28;20048;-86
2022/03/27 09:05:20;;;;;;;25.42;13.38;;;9.50;99.90;;;;;;5009811;28;20137;-87
2022/03/27 09:07:47;;;;;;;23.50;13.05;;;9.60;99.90;;;;;;5012976;28;20026;-85
2022/03/27 09:10:13;;;;;;;25.45;14.23;;;9.60;99.90;;;;;;4996014;28;20100;-87
2022/03/27 09:12:42;;;;;;;23.40;13.55;;;9.60;99.90;;;;;;5021823;28;20026;-87
2022/03/27 09:15:11;;;;;;;28.70;12.93;;;9.80;99.90;;;;;;5009552;28;20053;-86
2022/03/27 09:18:01;;;;;;;25.00;14.35;;;9.90;99.90;;;;;;5028446;28;20053;-86
2022/03/27 09:20:41;;;;;;;25.10;13.23;;;10.10;99.90;;;;;;5009194;28;20022;-86
2022/03/27 09:23:16;;;;;;;24.75;14.80;;;10.20;99.90;;;;;;5024589;28;20057;-83
2022/03/27 09:25:50;;;;;;;23.58;12.82;;;10.20;99.90;;;;;;5028952;28;20034;-87
2022/03/27 09:28:28;;;;;;;24.05;13.82;;;10.30;99.90;;;;;;5010943;28;20125;-86
2022/03/27 09:30:55;;;;;;;24.75;13.45;;;10.40;99.90;;;;;;5010128;28;20080;-84
2022/03/27 09:33:49;;;;;;;23.10;12.57;;;10.40;99.90;;;;;;5010277;28;20034;-84
2022/03/27 09:36:42;;;;;;;22.95;12.85;;;10.50;99.90;;;;;;5025764;28;20559;-85
2022/03/27 09:39:20;;;;;;;23.95;12.93;;;10.50;99.90;;;;;;4972131;28;20042;-85
2022/03/27 09:41:51;;;;;;;24.95;13.05;;;10.60;99.90;;;;;;5010856;28;20072;-85
2022/03/27 09:44:22;;;;;;;25.83;13.32;;;10.60;99.90;;;;;;5019529;28;20053;-83
2022/03/27 09:47:05;;;;;;;22.38;12.00;;;10.60;99.90;;;;;;5022618;28;20034;-83
2022/03/27 09:49:34;;;;;;;23.90;12.57;;;10.70;99.90;;;;;;5012393;28;20584;-84
2022/03/27 09:52:08;;;;;;;23.63;13.23;;;10.80;99.90;;;;;;5003409;28;20490;-85
2022/03/27 09:54:57;;;;;;;23.60;12.68;;;10.90;99.90;;;;;;5009636;28;20033;-84
2022/03/27 09:57:37;;;;;;;23.00;12.45;;;11.00;99.90;;;;;;5004433;28;20527;-84
2022/03/27 10:00:20;;;;;;;22.92;12.23;;;11.10;99.90;;;;;;5022830;28;20177;-84
2022/03/27 10:02:49;;;;;;;;;;;11.20;99.90;;;;;;5010205;28;20485;-85
2022/03/27 10:05:19;;;;;;;23.45;12.85;;;11.40;99.90;;;;;;5010019;28;20418;-85
2022/03/27 10:07:56;;;;;;;22.70;11.45;;;11.50;99.90;;;;;;5006892;28;20018;-85
2022/03/27 10:10:27;;;;;;;20.67;11.63;;;11.60;99.90;;;;;;5003158;28;20029;-85
2022/03/27 10:12:55;;;;;;;18.13;10.73;;;11.70;99.30;;;;;;5008069;28;20105;-85
2022/03/27 10:15:25;;;;;;;21.55;11.57;;;11.80;98.60;;;;;;5006353;28;20030;-86
2022/03/27 10:18:05;;;;;;;18.75;10.68;;;11.80;97.60;;;;;;4999629;28;20022;-85
2022/03/27 10:20:36;;;;;;;19.48;11.13;;;11.90;97.60;;;;;;5007942;28;20132;-85
2022/03/27 10:23:13;;;;;;;20.27;10.43;;;11.90;97.70;;;;;;5021784;28;20022;-86
2022/03/27 10:25:56;;;;;;;17.75;11.05;;;12.00;97.00;;;;;;5021827;28;20042;-85
2022/03/27 10:28:22;;;;;;;15.90;9.90;;;12.00;96.40;;;;;;5005804;28;20061;-86
2022/03/27 10:30:53;;;;;;;19.25;10.55;;;12.10;95.90;;;;;;5021423;28;20124;-86
2022/03/27 10:33:24;;;;;;;19.13;10.80;;;12.10;94.80;;;;;;5009874;28;20025;-86
2022/03/27 10:36:12;;;;;;;19.67;10.75;;;12.10;94.30;;;;;;5009449;28;20280;-85
2022/03/27 10:38:54;;;;;;;22.17;10.35;;;12.20;94.30;;;;;;5006321;28;20033;-85
2022/03/27 10:41:24;;;;;;;18.35;10.07;;;12.30;94.40;;;;;;5004913;28;20146;-85
2022/03/27 10:43:56;;;;;;;19.08;9.80;;;12.40;93.50;;;;;;5021477;28;20052;-85
2022/03/27 10:46:24;;;;;;;20.77;10.93;;;12.40;93.40;;;;;;5004169;28;20046;-84
2022/03/27 10:48:52;;;;;;;16.70;9.63;;;12.50;93.40;;;;;;5005173;28;20308;-86
2022/03/27 10:51:37;;;;;;;15.73;8.98;;;12.60;93.20;;;;;;5021822;28;20054;-86
2022/03/27 10:54:18;;;;;;;16.38;8.93;;;12.80;92.70;;;;;;5005327;28;20053;-85
2022/03/27 10:56:51;;;;;;;16.15;9.60;;;12.90;92.20;;;;;;5005815;28;20029;-84
2022/03/27 10:59:18;;;;;;;19.05;10.43;;;12.90;91.90;;;;;;5021277;28;20026;-84
2022/03/27 11:01:51;;;;;;;17.10;10.05;;;13.00;92.10;;;;;;5007344;28;20393;-85
2022/03/27 11:04:19;;;;;;;16.30;9.40;;;13.10;91.60;;;;;;5022819;28;20087;-85
2022/03/27 11:06:49;;;;;;;19.30;9.88;;;13.20;90.80;;;;;;5023693;28;20037;-85
2022/03/27 11:09:36;;;;;;;19.67;10.43;;;13.10;90.60;;;;;;5010331;28;20482;-85
2022/03/27 11:12:06;;;;;;;18.85;10.50;;;13.30;90.80;;;;;;5006323;28;20030;-84
2022/03/27 11:15:06;;;;;;;17.77;10.27;;;13.40;90.50;;;;;;5000934;28;20113;-85
2022/03/27 11:17:49;;;;;;;14.15;8.23;;;13.50;90.10;;;;;;4994660;28;20091;-84
2022/03/27 11:20:21;;;;;;;17.90;9.70;;;13.50;88.90;;;;;;5029589;28;20030;-84
2022/03/27 11:22:54;;;;;;;16.27;9.55;;;13.50;88.20;;;;;;5011001;28;20030;-85
2022/03/27 11:25:32;;;;;;;17.20;10.05;;;13.60;86.10;;;;;;5011606;28;20045;-86
2022/03/27 11:28:13;;;;;;;18.45;10.07;;;13.70;86.20;;;;;;5011882;28;20034;-85
2022/03/27 11:30:54;;;;;;;18.80;10.00;;;13.80;85.70;;;;;;5011157;28;20030;-85
2022/03/27 11:33:26;;;;;;;15.10;9.32;;;13.90;85.60;;;;;;5011192;28;20544;-86
2022/03/27 11:36:01;;;;;;;14.70;9.98;;;14.00;85.20;;;;;;5012800;28;20370;-85
2022/03/27 11:38:32;;;;;;;18.15;10.10;;;14.00;82.70;;;;;;5019260;28;20037;-85
2022/03/27 11:41:29;;;;;;;15.00;9.15;;;13.90;82.20;;;;;;5003175;28;20030;-86
2022/03/27 11:43:56;;;;;;;19.45;9.23;;;13.90;82.10;;;;;;5006075;28;20037;-86
2022/03/27 11:46:29;;;;;;;17.23;10.00;;;14.00;81.40;;;;;;5026546;28;20056;-85
2022/03/27 11:48:55;;;;;;;19.77;10.45;;;14.00;79.50;;;;;;5011982;28;20022;-86
2022/03/27 11:51:24;;;;;;;17.88;10.18;;;14.00;79.90;;;;;;5011815;28;20034;-85
2022/03/27 11:53:52;;;;;;;15.48;9.27;;;14.00;79.90;;;;;;5011031;28;20026;-85
2022/03/27 11:56:19;;;;;;;13.93;8.55;;;14.10;80.70;;;;;;5028177;28;20018;-86
2022/03/27 11:59:03;;;;;;;18.63;10.15;;;14.30;80.90;;;;;;5010349;28;20485;-84
2022/03/27 12:01:29;;;;;;;17.58;9.55;;;14.30;77.30;;;;;;5008344;28;20037;-85
2022/03/27 12:04:05;;;;;;;16.88;9.32;;;14.20;77.40;;;;;;5011664;28;20494;-85
2022/03/27 12:06:33;;;;;;;14.05;8.55;;;14.40;78.30;;;;;;5002975;28;20033;-86
2022/03/27 12:09:02;;;;;;;15.07;8.27;;;14.50;77.90;;;;;;5011324;28;20552;-86
2022/03/27 12:11:27;;;;;;;15.32;8.75;;;14.60;76.20;;;;;;5026013;28;20034;-85
2022/03/27 12:13:53;;;;;;;12.20;7.97;;;14.70;75.80;;;;;;5014977;28;20030;-86
2022/03/27 12:16:31;;;;;;;12.27;8.45;;;14.80;75.80;;;;;;5013875;28;20087;-85
2022/03/27 12:18:58;;;;;;;13.55;7.50;;;14.90;75.20;;;;;;5009329;28;20077;-86
2022/03/27 12:21:24;;;;;;;14.73;8.32;;;14.90;75.00;;;;;;5013720;28;20117;-86
2022/03/27 12:24:04;;;;;;;17.33;8.98;;;15.00;74.10;;;;;;5013895;28;20061;-86
2022/03/27 12:29:40;;;;;;;15.55;8.45;;;15.00;72.10;;;;;;5011592;28;20095;-86
2022/03/27 12:32:11;;;;;;;13.32;7.10;;;15.00;71.30;;;;;;5014607;28;20026;-84
2022/03/27 12:35:01;;;;;;;11.65;7.20;;;15.00;70.90;;;;;;5013912;28;20045;-84
2022/03/27 12:37:31;;;;;;;12.60;7.07;;;15.00;71.40;;;;;;5013449;28;20386;-85
2022/03/27 12:40:14;;;;;;;13.85;7.55;;;15.10;71.10;;;;;;5007934;28;20413;-85
2022/03/27 12:42:43;;;;;;;12.60;7.25;;;15.20;71.10;;;;;;5028783;28;20089;-85
2022/03/27 12:45:32;;;;;;;14.45;6.78;;;15.50;70.20;;;;;;5015766;28;20041;-85
2022/03/27 12:48:19;;;;;;;13.45;6.60;;;15.50;68.90;;;;;;5021723;28;20040;-85
2022/03/27 12:50:52;;;;;;;12.35;6.85;;;15.50;68.50;;;;;;5021711;28;20049;-85
2022/03/27 12:53:21;;;;;;;12.23;6.50;;;15.60;67.60;;;;;;5015656;28;20030;-85
2022/03/27 12:55:55;;;;;;;12.50;7.20;;;15.60;67.00;;;;;;5015439;28;20025;-85
2022/03/27 12:58:35;;;;;;;13.35;6.82;;;15.60;66.50;;;;;;5014168;28;20022;-86
2022/03/27 13:01:08;;;;;;;21.52;6.90;;;15.60;66.00;;;;;;5019723;28;20026;-86